sensor_id;sensor_type;location;lat;lon;timestamp;temperature;humidity
9564;DHT22;4820;50.870;4.702;2024-02-21T00:00:38;9.70;99.90
9564;DHT22;4820;50.870;4.702;2024-02-21T00:03:04;9.70;99.90
9564;DHT22;4820;50.870;4.702;2024-02-21T00:05:30;9.70;99.90
9564;DHT22;4820;50.870;4.702;2024-02-21T00:07:58;9.70;99.90
9564;DHT22;4820;50.870;4.702;2024-02-21T00:10:24;9.70;99.90
9564;DHT22;4820;50.870;4.702;2024-02-21T00:12:51;9.70;99.90
9564;DHT22;4820;50.870;4.702;2024-02-21T00:15:17;9.70;99.90
9564;DHT22;4820;50.870;4.702;2024-02-21T00:17:44;9.70;99.90
9564;DHT22;4820;50.870;4.702;2024-02-21T00:20:10;9.60;99.90
9564;DHT22;4820;50.870;4.702;2024-02-21T00:22:36;9.60;99.90
9564;DHT22;4820;50.870;4.702;2024-02-21T00:25:01;9.60;99.90
9564;DHT22;4820;50.870;4.702;2024-02-21T00:27:27;9.60;99.90
9564;DHT22;4820;50.870;4.702;2024-02-21T00:29:53;9.60;99.90
9564;DHT22;4820;50.870;4.702;2024-02-21T00:32:19;9.60;99.90
9564;DHT22;4820;50.870;4.702;2024-02-21T00:34:45;9.60;99.90
9564;DHT22;4820;50.870;4.702;2024-02-21T00:37:10;9.60;99.90
9564;DHT22;4820;50.870;4.702;2024-02-21T00:39:36;9.60;99.90
9564;DHT22;4820;50.870;4.702;2024-02-21T00:42:02;9.60;99.90
9564;DHT22;4820;50.870;4.702;2024-02-21T00:44:28;9.60;99.90
9564;DHT22;4820;50.870;4.702;2024-02-21T00:46:54;9.70;99.90
9564;DHT22;4820;50.870;4.702;2024-02-21T00:49:19;9.60;99.90
9564;DHT22;4820;50.870;4.702;2024-02-21T00:51:45;9.60;99.90
9564;DHT22;4820;50.870;4.702;2024-02-21T00:54:11;9.60;99.90
9564;DHT22;4820;50.870;4.702;2024-02-21T00:56:36;9.60;99.90
9564;DHT22;4820;50.870;4.702;2024-02-21T00:59:02;9.70;99.90
9564;DHT22;4820;50.870;4.702;2024-02-21T01:01:28;9.60;99.90
9564;DHT22;4820;50.870;4.702;2024-02-21T01:03:53;9.70;99.90
9564;DHT22;4820;50.870;4.702;2024-02-21T01:06:19;9.70;99.90
9564;DHT22;4820;50.870;4.702;2024-02-21T01:08:46;9.60;99.90
9564;DHT22;4820;50.870;4.702;2024-02-21T01:11:15;9.60;99.90
9564;DHT22;4820;50.870;4.702;2024-02-21T01:13:40;9.60;99.90
9564;DHT22;4820;50.870;4.702;2024-02-21T01:16:06;9.60;99.90
9564;DHT22;4820;50.870;4.702;2024-02-21T01:18:37;9.60;99.90
9564;DHT22;4820;50.870;4.702;2024-02-21T01:21:05;9.60;99.90
9564;DHT22;4820;50.870;4.702;2024-02-21T01:23:35;9.60;99.90
9564;DHT22;4820;50.870;4.702;2024-02-21T01:26:02;9.60;99.90
9564;DHT22;4820;50.870;4.702;2024-02-21T01:28:28;9.60;99.90
9564;DHT22;4820;50.870;4.702;2024-02-21T01:30:54;9.60;99.90
9564;DHT22;4820;50.870;4.702;2024-02-21T01:33:21;9.60;99.90
9564;DHT22;4820;50.870;4.702;2024-02-21T01:35:46;9.60;99.90
9564;DHT22;4820;50.870;4.702;2024-02-21T01:38:15;9.60;99.90
9564;DHT22;4820;50.870;4.702;2024-02-21T01:40:41;9.60;99.90
9564;DHT22;4820;50.870;4.702;2024-02-21T01:43:16;9.60;99.90
9564;DHT22;4820;50.870;4.702;2024-02-21T01:45:48;9.60;99.90
9564;DHT22;4820;50.870;4.702;2024-02-21T01:48:14;9.60;99.90
9564;DHT22;4820;50.870;4.702;2024-02-21T01:50:41;9.60;99.90
9564;DHT22;4820;50.870;4.702;2024-02-21T01:53:07;9.60;99.90
9564;DHT22;4820;50.870;4.702;2024-02-21T01:55:33;9.60;99.90
9564;DHT22;4820;50.870;4.702;2024-02-21T01:57:59;9.60;99.90
9564;DHT22;4820;50.870;4.702;2024-02-21T02:00:26;9.60;99.90
9564;DHT22;4820;50.870;4.702;2024-02-21T02:02:53;9.60;99.90
9564;DHT22;4820;50.870;4.702;2024-02-21T02:05:19;9.60;99.90
9564;DHT22;4820;50.870;4.702;2024-02-21T02:07:46;9.60;99.90
9564;DHT22;4820;50.870;4.702;2024-02-21T02:10:12;9.60;99.90
9564;DHT22;4820;50.870;4.702;2024-02-21T02:12:38;9.50;99.90
9564;DHT22;4820;50.870;4.702;2024-02-21T02:15:04;9.60;99.90
9564;DHT22;4820;50.870;4.702;2024-02-21T02:17:30;9.60;99.90
9564;DHT22;4820;50.870;4.702;2024-02-21T02:19:56;9.60;99.90
9564;DHT22;4820;50.870;4.702;2024-02-21T02:22:28;9.60;99.90
9564;DHT22;4820;50.870;4.702;2024-02-21T02:24:55;9.60;99.90
9564;DHT22;4820;50.870;4.702;2024-02-21T02:27:20;9.60;99.90
9564;DHT22;4820;50.870;4.702;2024-02-21T02:29:48;9.60;99.90
9564;DHT22;4820;50.870;4.702;2024-02-21T02:32:14;9.60;99.90
9564;DHT22;4820;50.870;4.702;2024-02-21T02:34:40;9.60;99.90
9564;DHT22;4820;50.870;4.702;2024-02-21T02:37:06;9.50;99.90
9564;DHT22;4820;50.870;4.702;2024-02-21T02:39:32;9.50;99.90
9564;DHT22;4820;50.870;4.702;2024-02-21T02:41:57;9.50;99.90
9564;DHT22;4820;50.870;4.702;2024-02-21T02:44:23;9.50;99.90
9564;DHT22;4820;50.870;4.702;2024-02-21T02:46:49;9.50;99.90
9564;DHT22;4820;50.870;4.702;2024-02-21T02:49:15;9.50;99.90
9564;DHT22;4820;50.870;4.702;2024-02-21T02:51:44;9.50;99.90
9564;DHT22;4820;50.870;4.702;2024-02-21T02:54:10;9.50;99.90
9564;DHT22;4820;50.870;4.702;2024-02-21T02:56:36;9.50;99.90
9564;DHT22;4820;50.870;4.702;2024-02-21T02:59:02;9.50;99.90
9564;DHT22;4820;50.870;4.702;2024-02-21T03:01:29;9.50;99.90
9564;DHT22;4820;50.870;4.702;2024-02-21T03:03:54;9.50;99.90
9564;DHT22;4820;50.870;4.702;2024-02-21T03:06:20;9.50;99.90
9564;DHT22;4820;50.870;4.702;2024-02-21T03:08:46;9.50;99.90
9564;DHT22;4820;50.870;4.702;2024-02-21T03:11:12;9.50;99.90
9564;DHT22;4820;50.870;4.702;2024-02-21T03:13:37;9.40;99.90
9564;DHT22;4820;50.870;4.702;2024-02-21T03:16:03;9.40;99.90
9564;DHT22;4820;50.870;4.702;2024-02-21T03:18:29;9.50;99.90
9564;DHT22;4820;50.870;4.702;2024-02-21T03:20:55;9.40;99.90
9564;DHT22;4820;50.870;4.702;2024-02-21T03:23:21;9.40;99.90
9564;DHT22;4820;50.870;4.702;2024-02-21T03:25:46;9.50;99.90
9564;DHT22;4820;50.870;4.702;2024-02-21T03:28:12;9.50;99.90
9564;DHT22;4820;50.870;4.702;2024-02-21T03:30:38;9.50;99.90
9564;DHT22;4820;50.870;4.702;2024-02-21T03:33:04;9.40;99.90
9564;DHT22;4820;50.870;4.702;2024-02-21T03:35:29;9.50;99.90
9564;DHT22;4820;50.870;4.702;2024-02-21T03:37:55;9.40;99.90
9564;DHT22;4820;50.870;4.702;2024-02-21T03:40:21;9.50;99.90
9564;DHT22;4820;50.870;4.702;2024-02-21T03:42:47;9.50;99.90
9564;DHT22;4820;50.870;4.702;2024-02-21T03:45:12;9.50;99.90
9564;DHT22;4820;50.870;4.702;2024-02-21T03:47:39;9.50;99.90
9564;DHT22;4820;50.870;4.702;2024-02-21T03:50:06;9.50;99.90
9564;DHT22;4820;50.870;4.702;2024-02-21T03:52:32;9.50;99.90
9564;DHT22;4820;50.870;4.702;2024-02-21T03:54:58;9.50;99.90
9564;DHT22;4820;50.870;4.702;2024-02-21T03:57:23;9.50;99.90
9564;DHT22;4820;50.870;4.702;2024-02-21T03:59:52;9.50;99.90
9564;DHT22;4820;50.870;4.702;2024-02-21T04:02:18;9.50;99.90
9564;DHT22;4820;50.870;4.702;2024-02-21T04:04:44;9.50;99.90
9564;DHT22;4820;50.870;4.702;2024-02-21T04:07:14;9.50;99.90
9564;DHT22;4820;50.870;4.702;2024-02-21T04:09:40;9.50;99.90
9564;DHT22;4820;50.870;4.702;2024-02-21T04:12:08;9.40;99.90
9564;DHT22;4820;50.870;4.702;2024-02-21T04:14:34;9.40;99.90
9564;DHT22;4820;50.870;4.702;2024-02-21T04:17:00;9.40;99.90
9564;DHT22;4820;50.870;4.702;2024-02-21T04:19:26;9.40;99.90
9564;DHT22;4820;50.870;4.702;2024-02-21T04:21:51;9.40;99.90
9564;DHT22;4820;50.870;4.702;2024-02-21T04:24:17;9.40;99.90
9564;DHT22;4820;50.870;4.702;2024-02-21T04:26:43;9.40;99.90
9564;DHT22;4820;50.870;4.702;2024-02-21T04:29:09;9.40;99.90
9564;DHT22;4820;50.870;4.702;2024-02-21T04:31:35;9.40;99.90
9564;DHT22;4820;50.870;4.702;2024-02-21T04:34:01;9.40;99.90
9564;DHT22;4820;50.870;4.702;2024-02-21T04:36:28;9.40;99.90
9564;DHT22;4820;50.870;4.702;2024-02-21T04:38:54;9.30;99.90
9564;DHT22;4820;50.870;4.702;2024-02-21T04:41:19;9.40;99.90
9564;DHT22;4820;50.870;4.702;2024-02-21T04:43:46;9.30;99.90
9564;DHT22;4820;50.870;4.702;2024-02-21T04:46:12;9.40;99.90
9564;DHT22;4820;50.870;4.702;2024-02-21T04:48:38;9.40;99.90
9564;DHT22;4820;50.870;4.702;2024-02-21T04:51:04;9.40;99.90
9564;DHT22;4820;50.870;4.702;2024-02-21T04:53:31;9.40;99.90
9564;DHT22;4820;50.870;4.702;2024-02-21T04:55:56;9.40;99.90
9564;DHT22;4820;50.870;4.702;2024-02-21T04:58:22;9.40;99.90
9564;DHT22;4820;50.870;4.702;2024-02-21T05:00:48;9.40;99.90
9564;DHT22;4820;50.870;4.702;2024-02-21T05:03:14;9.40;99.90
9564;DHT22;4820;50.870;4.702;2024-02-21T05:05:39;9.40;99.90
9564;DHT22;4820;50.870;4.702;2024-02-21T05:08:05;9.40;99.90
9564;DHT22;4820;50.870;4.702;2024-02-21T05:10:31;9.50;99.90
9564;DHT22;4820;50.870;4.702;2024-02-21T05:12:59;9.50;99.90
9564;DHT22;4820;50.870;4.702;2024-02-21T05:15:25;9.40;99.90
9564;DHT22;4820;50.870;4.702;2024-02-21T05:17:50;9.40;99.90
9564;DHT22;4820;50.870;4.702;2024-02-21T05:20:16;9.50;99.90
9564;DHT22;4820;50.870;4.702;2024-02-21T05:22:42;9.50;99.90
9564;DHT22;4820;50.870;4.702;2024-02-21T05:25:08;9.50;99.90
9564;DHT22;4820;50.870;4.702;2024-02-21T05:27:36;9.50;99.90
9564;DHT22;4820;50.870;4.702;2024-02-21T05:30:04;9.50;99.90
9564;DHT22;4820;50.870;4.702;2024-02-21T05:32:30;9.50;99.90
9564;DHT22;4820;50.870;4.702;2024-02-21T05:34:56;9.50;99.90
9564;DHT22;4820;50.870;4.702;2024-02-21T05:37:23;9.50;99.90
9564;DHT22;4820;50.870;4.702;2024-02-21T05:39:49;9.40;99.90
9564;DHT22;4820;50.870;4.702;2024-02-21T05:42:14;9.40;99.90
9564;DHT22;4820;50.870;4.702;2024-02-21T05:44:40;9.40;99.90
9564;DHT22;4820;50.870;4.702;2024-02-21T05:47:06;9.40;99.90
9564;DHT22;4820;50.870;4.702;2024-02-21T05:49:35;9.40;99.90
9564;DHT22;4820;50.870;4.702;2024-02-21T05:52:01;9.40;99.90
9564;DHT22;4820;50.870;4.702;2024-02-21T05:54:27;9.40;99.90
9564;DHT22;4820;50.870;4.702;2024-02-21T05:56:52;9.40;99.90
9564;DHT22;4820;50.870;4.702;2024-02-21T05:59:19;9.40;99.90
9564;DHT22;4820;50.870;4.702;2024-02-21T06:01:44;9.40;99.90
9564;DHT22;4820;50.870;4.702;2024-02-21T06:04:10;9.40;99.90
9564;DHT22;4820;50.870;4.702;2024-02-21T06:06:36;9.40;99.90
9564;DHT22;4820;50.870;4.702;2024-02-21T06:09:01;9.40;99.90
9564;DHT22;4820;50.870;4.702;2024-02-21T06:11:28;9.40;99.90
9564;DHT22;4820;50.870;4.702;2024-02-21T06:13:54;9.40;99.90
9564;DHT22;4820;50.870;4.702;2024-02-21T06:16:20;9.40;99.90
9564;DHT22;4820;50.870;4.702;2024-02-21T06:18:46;9.40;99.90
9564;DHT22;4820;50.870;4.702;2024-02-21T06:21:12;9.40;99.90
9564;DHT22;4820;50.870;4.702;2024-02-21T06:23:38;9.40;99.90
9564;DHT22;4820;50.870;4.702;2024-02-21T06:26:03;9.40;99.90
9564;DHT22;4820;50.870;4.702;2024-02-21T06:28:29;9.40;99.90
9564;DHT22;4820;50.870;4.702;2024-02-21T06:30:54;9.40;99.90
9564;DHT22;4820;50.870;4.702;2024-02-21T06:33:20;9.40;99.90
9564;DHT22;4820;50.870;4.702;2024-02-21T06:35:50;9.40;99.90
9564;DHT22;4820;50.870;4.702;2024-02-21T06:38:18;9.50;99.90
9564;DHT22;4820;50.870;4.702;2024-02-21T06:40:44;9.50;99.90
9564;DHT22;4820;50.870;4.702;2024-02-21T06:43:16;9.50;99.90
9564;DHT22;4820;50.870;4.702;2024-02-21T06:45:41;9.50;99.90
9564;DHT22;4820;50.870;4.702;2024-02-21T06:48:07;9.60;99.90
9564;DHT22;4820;50.870;4.702;2024-02-21T06:50:33;9.60;99.90
9564;DHT22;4820;50.870;4.702;2024-02-21T06:52:59;9.60;99.90
9564;DHT22;4820;50.870;4.702;2024-02-21T06:55:24;9.60;99.90
9564;DHT22;4820;50.870;4.702;2024-02-21T06:57:50;9.60;99.90
9564;DHT22;4820;50.870;4.702;2024-02-21T07:00:16;9.50;99.90
9564;DHT22;4820;50.870;4.702;2024-02-21T07:02:42;9.50;99.90
9564;DHT22;4820;50.870;4.702;2024-02-21T07:05:08;9.50;99.90
9564;DHT22;4820;50.870;4.702;2024-02-21T07:07:34;9.40;99.90
9564;DHT22;4820;50.870;4.702;2024-02-21T07:10:00;9.40;99.90
9564;DHT22;4820;50.870;4.702;2024-02-21T07:12:26;9.30;99.90
9564;DHT22;4820;50.870;4.702;2024-02-21T07:14:52;9.30;99.90
9564;DHT22;4820;50.870;4.702;2024-02-21T07:17:17;9.30;99.90
9564;DHT22;4820;50.870;4.702;2024-02-21T07:19:43;9.20;99.90
9564;DHT22;4820;50.870;4.702;2024-02-21T07:22:08;9.20;99.90
9564;DHT22;4820;50.870;4.702;2024-02-21T07:24:34;9.20;99.90
9564;DHT22;4820;50.870;4.702;2024-02-21T07:27:00;9.20;99.90
9564;DHT22;4820;50.870;4.702;2024-02-21T07:29:30;9.20;99.90
9564;DHT22;4820;50.870;4.702;2024-02-21T07:31:56;9.20;99.90
9564;DHT22;4820;50.870;4.702;2024-02-21T07:34:21;9.20;99.90
9564;DHT22;4820;50.870;4.702;2024-02-21T07:36:47;9.20;99.90
9564;DHT22;4820;50.870;4.702;2024-02-21T07:39:13;9.20;99.90
9564;DHT22;4820;50.870;4.702;2024-02-21T07:41:38;9.10;99.90
9564;DHT22;4820;50.870;4.702;2024-02-21T07:44:05;9.10;99.90
9564;DHT22;4820;50.870;4.702;2024-02-21T07:46:31;9.10;99.90
9564;DHT22;4820;50.870;4.702;2024-02-21T07:48:57;9.10;99.90
9564;DHT22;4820;50.870;4.702;2024-02-21T07:51:22;9.10;99.90
9564;DHT22;4820;50.870;4.702;2024-02-21T07:53:48;9.20;99.90
9564;DHT22;4820;50.870;4.702;2024-02-21T07:56:15;9.20;99.90
9564;DHT22;4820;50.870;4.702;2024-02-21T07:58:41;9.10;99.90
9564;DHT22;4820;50.870;4.702;2024-02-21T08:01:08;9.20;99.90
9564;DHT22;4820;50.870;4.702;2024-02-21T08:03:33;9.20;99.90
9564;DHT22;4820;50.870;4.702;2024-02-21T08:05:59;9.20;99.90
9564;DHT22;4820;50.870;4.702;2024-02-21T08:08:25;9.30;99.90
9564;DHT22;4820;50.870;4.702;2024-02-21T08:10:52;9.40;99.90
9564;DHT22;4820;50.870;4.702;2024-02-21T08:13:18;9.40;99.90
9564;DHT22;4820;50.870;4.702;2024-02-21T08:15:43;9.50;99.90
9564;DHT22;4820;50.870;4.702;2024-02-21T08:18:09;9.50;99.90
9564;DHT22;4820;50.870;4.702;2024-02-21T08:20:35;9.60;99.90
9564;DHT22;4820;50.870;4.702;2024-02-21T08:23:01;9.60;99.90
9564;DHT22;4820;50.870;4.702;2024-02-21T08:25:27;9.60;99.90
9564;DHT22;4820;50.870;4.702;2024-02-21T08:27:56;9.60;99.90
9564;DHT22;4820;50.870;4.702;2024-02-21T08:30:22;9.60;99.90
9564;DHT22;4820;50.870;4.702;2024-02-21T08:32:48;9.70;99.90
9564;DHT22;4820;50.870;4.702;2024-02-21T08:35:14;9.70;99.90
9564;DHT22;4820;50.870;4.702;2024-02-21T08:37:39;9.70;99.90
9564;DHT22;4820;50.870;4.702;2024-02-21T08:40:05;9.70;99.90
9564;DHT22;4820;50.870;4.702;2024-02-21T08:42:42;9.70;99.90
9564;DHT22;4820;50.870;4.702;2024-02-21T08:45:08;9.70;99.90
9564;DHT22;4820;50.870;4.702;2024-02-21T08:47:35;9.70;99.90
9564;DHT22;4820;50.870;4.702;2024-02-21T08:50:05;9.70;99.90
9564;DHT22;4820;50.870;4.702;2024-02-21T08:52:31;9.70;99.90
9564;DHT22;4820;50.870;4.702;2024-02-21T08:54:57;9.70;99.90
9564;DHT22;4820;50.870;4.702;2024-02-21T08:57:23;9.70;99.90
9564;DHT22;4820;50.870;4.702;2024-02-21T08:59:48;9.80;99.90
9564;DHT22;4820;50.870;4.702;2024-02-21T09:02:14;9.80;99.90
9564;DHT22;4820;50.870;4.702;2024-02-21T09:04:43;9.80;99.90
9564;DHT22;4820;50.870;4.702;2024-02-21T09:07:11;9.80;99.90
9564;DHT22;4820;50.870;4.702;2024-02-21T09:09:37;9.80;99.90
9564;DHT22;4820;50.870;4.702;2024-02-21T09:12:09;9.80;99.90
9564;DHT22;4820;50.870;4.702;2024-02-21T09:14:37;9.80;99.90
9564;DHT22;4820;50.870;4.702;2024-02-21T09:17:05;9.80;99.90
9564;DHT22;4820;50.870;4.702;2024-02-21T09:19:31;9.90;99.90
9564;DHT22;4820;50.870;4.702;2024-02-21T09:21:57;10.00;99.90
9564;DHT22;4820;50.870;4.702;2024-02-21T09:24:22;10.00;99.90
9564;DHT22;4820;50.870;4.702;2024-02-21T09:26:49;10.00;99.90
9564;DHT22;4820;50.870;4.702;2024-02-21T09:29:16;10.00;99.90
9564;DHT22;4820;50.870;4.702;2024-02-21T09:31:42;10.10;99.90
9564;DHT22;4820;50.870;4.702;2024-02-21T09:34:07;10.10;99.90
9564;DHT22;4820;50.870;4.702;2024-02-21T09:36:33;10.10;99.90
9564;DHT22;4820;50.870;4.702;2024-02-21T09:38:59;10.10;99.90
9564;DHT22;4820;50.870;4.702;2024-02-21T09:41:27;10.10;99.90
9564;DHT22;4820;50.870;4.702;2024-02-21T09:43:53;10.20;99.90
9564;DHT22;4820;50.870;4.702;2024-02-21T09:46:25;10.20;99.90
9564;DHT22;4820;50.870;4.702;2024-02-21T09:51:49;10.30;99.90
9564;DHT22;4820;50.870;4.702;2024-02-21T09:54:17;10.30;99.90
9564;DHT22;4820;50.870;4.702;2024-02-21T09:56:47;10.40;99.90
9564;DHT22;4820;50.870;4.702;2024-02-21T09:59:15;10.40;99.90
9564;DHT22;4820;50.870;4.702;2024-02-21T10:01:45;10.50;99.90
9564;DHT22;4820;50.870;4.702;2024-02-21T10:04:12;10.50;99.90
9564;DHT22;4820;50.870;4.702;2024-02-21T10:06:38;10.60;99.90
9564;DHT22;4820;50.870;4.702;2024-02-21T10:09:06;10.60;99.90
9564;DHT22;4820;50.870;4.702;2024-02-21T10:11:32;10.60;99.90
9564;DHT22;4820;50.870;4.702;2024-02-21T10:14:07;10.60;99.90
9564;DHT22;4820;50.870;4.702;2024-02-21T10:16:33;10.60;99.90
9564;DHT22;4820;50.870;4.702;2024-02-21T10:19:00;10.70;99.90
9564;DHT22;4820;50.870;4.702;2024-02-21T10:21:26;10.60;99.90
9564;DHT22;4820;50.870;4.702;2024-02-21T10:23:52;10.70;99.90
9564;DHT22;4820;50.870;4.702;2024-02-21T10:26:19;10.70;99.90
9564;DHT22;4820;50.870;4.702;2024-02-21T10:28:45;10.70;99.90
9564;DHT22;4820;50.870;4.702;2024-02-21T10:31:24;10.70;99.90
9564;DHT22;4820;50.870;4.702;2024-02-21T10:34:08;10.70;99.90
9564;DHT22;4820;50.870;4.702;2024-02-21T10:36:34;10.80;99.90
9564;DHT22;4820;50.870;4.702;2024-02-21T10:39:00;10.80;99.90
9564;DHT22;4820;50.870;4.702;2024-02-21T10:41:25;10.80;99.90
9564;DHT22;4820;50.870;4.702;2024-02-21T10:43:54;10.90;99.90
9564;DHT22;4820;50.870;4.702;2024-02-21T10:46:21;11.00;99.90
9564;DHT22;4820;50.870;4.702;2024-02-21T10:48:52;11.10;99.90
9564;DHT22;4820;50.870;4.702;2024-02-21T10:51:20;11.10;99.90
9564;DHT22;4820;50.870;4.702;2024-02-21T10:54:09;11.10;99.90
9564;DHT22;4820;50.870;4.702;2024-02-21T10:56:39;11.10;99.90
9564;DHT22;4820;50.870;4.702;2024-02-21T10:59:07;11.10;99.90
9564;DHT22;4820;50.870;4.702;2024-02-21T11:01:33;11.10;99.90
9564;DHT22;4820;50.870;4.702;2024-02-21T11:04:12;11.00;99.90
9564;DHT22;4820;50.870;4.702;2024-02-21T11:06:40;11.00;99.90
9564;DHT22;4820;50.870;4.702;2024-02-21T11:09:07;11.00;99.90
9564;DHT22;4820;50.870;4.702;2024-02-21T11:11:39;11.10;99.90
9564;DHT22;4820;50.870;4.702;2024-02-21T11:14:18;11.10;99.90
9564;DHT22;4820;50.870;4.702;2024-02-21T11:16:44;11.00;99.90
9564;DHT22;4820;50.870;4.702;2024-02-21T11:19:25;11.10;99.90
9564;DHT22;4820;50.870;4.702;2024-02-21T11:21:52;11.10;99.90
9564;DHT22;4820;50.870;4.702;2024-02-21T11:24:32;11.10;99.90
9564;DHT22;4820;50.870;4.702;2024-02-21T11:27:12;11.10;99.90
9564;DHT22;4820;50.870;4.702;2024-02-21T11:29:46;11.10;99.90
9564;DHT22;4820;50.870;4.702;2024-02-21T11:32:16;11.10;99.90
9564;DHT22;4820;50.870;4.702;2024-02-21T11:35:03;11.20;99.90
9564;DHT22;4820;50.870;4.702;2024-02-21T11:37:33;11.10;99.90
9564;DHT22;4820;50.870;4.702;2024-02-21T11:40:00;11.10;99.90
9564;DHT22;4820;50.870;4.702;2024-02-21T11:42:27;11.10;99.90
9564;DHT22;4820;50.870;4.702;2024-02-21T11:44:56;11.20;99.90
9564;DHT22;4820;50.870;4.702;2024-02-21T11:47:25;11.20;99.90
9564;DHT22;4820;50.870;4.702;2024-02-21T11:49:51;11.20;99.90
9564;DHT22;4820;50.870;4.702;2024-02-21T11:52:23;11.20;99.90
9564;DHT22;4820;50.870;4.702;2024-02-21T11:54:51;11.10;99.90
9564;DHT22;4820;50.870;4.702;2024-02-21T11:57:18;11.10;99.90
9564;DHT22;4820;50.870;4.702;2024-02-21T11:59:47;11.10;99.90
9564;DHT22;4820;50.870;4.702;2024-02-21T12:02:19;11.10;99.90
9564;DHT22;4820;50.870;4.702;2024-02-21T12:04:45;11.10;99.90
9564;DHT22;4820;50.870;4.702;2024-02-21T12:07:11;11.10;99.90
9564;DHT22;4820;50.870;4.702;2024-02-21T12:09:36;11.00;99.90
9564;DHT22;4820;50.870;4.702;2024-02-21T12:12:04;11.10;99.90
9564;DHT22;4820;50.870;4.702;2024-02-21T12:14:32;11.00;99.90
9564;DHT22;4820;50.870;4.702;2024-02-21T12:16:59;11.00;99.90
9564;DHT22;4820;50.870;4.702;2024-02-21T12:19:25;11.10;99.90
9564;DHT22;4820;50.870;4.702;2024-02-21T12:21:52;11.10;99.90
9564;DHT22;4820;50.870;4.702;2024-02-21T12:24:25;11.20;99.90
9564;DHT22;4820;50.870;4.702;2024-02-21T12:26:51;11.20;99.90
9564;DHT22;4820;50.870;4.702;2024-02-21T12:29:19;11.20;99.90
9564;DHT22;4820;50.870;4.702;2024-02-21T12:31:46;11.20;99.90
9564;DHT22;4820;50.870;4.702;2024-02-21T12:34:12;11.20;99.90
9564;DHT22;4820;50.870;4.702;2024-02-21T12:36:42;11.10;99.90
9564;DHT22;4820;50.870;4.702;2024-02-21T12:39:09;11.20;99.90
9564;DHT22;4820;50.870;4.702;2024-02-21T12:41:36;11.20;99.90
9564;DHT22;4820;50.870;4.702;2024-02-21T12:44:04;11.10;99.90
9564;DHT22;4820;50.870;4.702;2024-02-21T12:46:33;11.10;99.90
9564;DHT22;4820;50.870;4.702;2024-02-21T12:48:59;11.10;99.90
9564;DHT22;4820;50.870;4.702;2024-02-21T12:51:24;11.10;99.90
9564;DHT22;4820;50.870;4.702;2024-02-21T12:53:50;11.20;99.90
9564;DHT22;4820;50.870;4.702;2024-02-21T12:56:16;11.20;99.90
9564;DHT22;4820;50.870;4.702;2024-02-21T12:58:42;11.20;99.90
9564;DHT22;4820;50.870;4.702;2024-02-21T13:01:08;11.20;99.90
9564;DHT22;4820;50.870;4.702;2024-02-21T13:03:34;11.20;99.90
9564;DHT22;4820;50.870;4.702;2024-02-21T13:06:00;11.20;99.90
9564;DHT22;4820;50.870;4.702;2024-02-21T13:08:25;11.20;99.90
9564;DHT22;4820;50.870;4.702;2024-02-21T13:10:51;11.20;99.90
9564;DHT22;4820;50.870;4.702;2024-02-21T13:13:17;11.20;99.90
9564;DHT22;4820;50.870;4.702;2024-02-21T13:15:43;11.30;99.90
9564;DHT22;4820;50.870;4.702;2024-02-21T13:18:09;11.30;99.90
9564;DHT22;4820;50.870;4.702;2024-02-21T13:20:36;11.30;99.90
9564;DHT22;4820;50.870;4.702;2024-02-21T13:23:02;11.30;99.90
9564;DHT22;4820;50.870;4.702;2024-02-21T13:25:28;11.30;99.90
9564;DHT22;4820;50.870;4.702;2024-02-21T13:27:53;11.30;99.90
9564;DHT22;4820;50.870;4.702;2024-02-21T13:30:19;11.30;99.90
9564;DHT22;4820;50.870;4.702;2024-02-21T13:32:45;11.40;99.90
9564;DHT22;4820;50.870;4.702;2024-02-21T13:35:14;11.30;99.90
9564;DHT22;4820;50.870;4.702;2024-02-21T13:37:43;11.30;99.90
9564;DHT22;4820;50.870;4.702;2024-02-21T13:40:09;11.30;99.90
9564;DHT22;4820;50.870;4.702;2024-02-21T13:42:36;11.30;99.90
9564;DHT22;4820;50.870;4.702;2024-02-21T13:45:02;11.30;99.90
9564;DHT22;4820;50.870;4.702;2024-02-21T13:47:28;11.30;99.90
9564;DHT22;4820;50.870;4.702;2024-02-21T13:49:54;11.20;99.90
9564;DHT22;4820;50.870;4.702;2024-02-21T13:52:21;11.20;99.90
9564;DHT22;4820;50.870;4.702;2024-02-21T13:54:47;11.20;99.90
9564;DHT22;4820;50.870;4.702;2024-02-21T13:57:13;11.20;99.90
9564;DHT22;4820;50.870;4.702;2024-02-21T13:59:40;11.20;99.90
9564;DHT22;4820;50.870;4.702;2024-02-21T14:02:08;11.20;99.90
9564;DHT22;4820;50.870;4.702;2024-02-21T14:04:34;11.20;99.90
9564;DHT22;4820;50.870;4.702;2024-02-21T14:07:00;11.20;99.90
9564;DHT22;4820;50.870;4.702;2024-02-21T14:09:26;11.10;99.90
9564;DHT22;4820;50.870;4.702;2024-02-21T14:11:52;11.10;99.90
9564;DHT22;4820;50.870;4.702;2024-02-21T14:14:19;11.10;99.90
9564;DHT22;4820;50.870;4.702;2024-02-21T14:16:44;11.10;99.90
9564;DHT22;4820;50.870;4.702;2024-02-21T14:19:13;11.00;99.90
9564;DHT22;4820;50.870;4.702;2024-02-21T14:21:39;11.00;99.90
9564;DHT22;4820;50.870;4.702;2024-02-21T14:24:05;11.00;99.90
9564;DHT22;4820;50.870;4.702;2024-02-21T14:26:31;11.00;99.90
9564;DHT22;4820;50.870;4.702;2024-02-21T14:28:58;10.90;99.90
9564;DHT22;4820;50.870;4.702;2024-02-21T14:31:24;10.90;99.90
9564;DHT22;4820;50.870;4.702;2024-02-21T14:33:50;10.90;99.90
9564;DHT22;4820;50.870;4.702;2024-02-21T14:36:16;10.90;99.90
9564;DHT22;4820;50.870;4.702;2024-02-21T14:38:42;10.80;99.90
9564;DHT22;4820;50.870;4.702;2024-02-21T14:41:09;10.80;99.90
9564;DHT22;4820;50.870;4.702;2024-02-21T14:43:37;10.70;99.90
9564;DHT22;4820;50.870;4.702;2024-02-21T14:46:03;10.70;99.90
9564;DHT22;4820;50.870;4.702;2024-02-21T14:48:31;10.60;99.90
9564;DHT22;4820;50.870;4.702;2024-02-21T14:50:58;10.50;99.90
9564;DHT22;4820;50.870;4.702;2024-02-21T14:53:24;10.50;99.90
9564;DHT22;4820;50.870;4.702;2024-02-21T14:55:49;10.50;99.90
9564;DHT22;4820;50.870;4.702;2024-02-21T14:58:16;10.40;99.90
9564;DHT22;4820;50.870;4.702;2024-02-21T15:00:43;10.40;99.90
9564;DHT22;4820;50.870;4.702;2024-02-21T15:03:09;10.30;99.90
9564;DHT22;4820;50.870;4.702;2024-02-21T15:05:36;10.30;99.90
9564;DHT22;4820;50.870;4.702;2024-02-21T15:08:03;10.30;99.90
9564;DHT22;4820;50.870;4.702;2024-02-21T15:10:28;10.30;99.90
9564;DHT22;4820;50.870;4.702;2024-02-21T15:12:54;10.30;99.90
9564;DHT22;4820;50.870;4.702;2024-02-21T15:15:20;10.30;99.90
9564;DHT22;4820;50.870;4.702;2024-02-21T15:17:45;10.30;99.90
9564;DHT22;4820;50.870;4.702;2024-02-21T15:20:11;10.30;99.90
9564;DHT22;4820;50.870;4.702;2024-02-21T15:22:37;10.30;99.90
9564;DHT22;4820;50.870;4.702;2024-02-21T15:25:04;10.30;99.90
9564;DHT22;4820;50.870;4.702;2024-02-21T15:27:30;10.30;99.90
9564;DHT22;4820;50.870;4.702;2024-02-21T15:29:57;10.30;99.90
9564;DHT22;4820;50.870;4.702;2024-02-21T15:32:24;10.30;99.90
9564;DHT22;4820;50.870;4.702;2024-02-21T15:34:52;10.30;99.90
9564;DHT22;4820;50.870;4.702;2024-02-21T15:37:19;10.20;99.90
9564;DHT22;4820;50.870;4.702;2024-02-21T15:39:45;10.20;99.90
9564;DHT22;4820;50.870;4.702;2024-02-21T15:42:12;10.10;99.90
9564;DHT22;4820;50.870;4.702;2024-02-21T15:44:37;10.10;99.90
9564;DHT22;4820;50.870;4.702;2024-02-21T15:47:04;10.00;99.90
9564;DHT22;4820;50.870;4.702;2024-02-21T15:49:32;10.00;99.90
9564;DHT22;4820;50.870;4.702;2024-02-21T15:51:58;10.00;99.90
9564;DHT22;4820;50.870;4.702;2024-02-21T15:54:23;9.90;99.90
9564;DHT22;4820;50.870;4.702;2024-02-21T15:56:50;9.90;99.90
9564;DHT22;4820;50.870;4.702;2024-02-21T15:59:16;9.90;99.90
9564;DHT22;4820;50.870;4.702;2024-02-21T16:01:41;9.90;99.90
9564;DHT22;4820;50.870;4.702;2024-02-21T16:04:09;9.90;99.90
9564;DHT22;4820;50.870;4.702;2024-02-21T16:06:35;9.80;99.90
9564;DHT22;4820;50.870;4.702;2024-02-21T16:09:00;9.80;99.90
9564;DHT22;4820;50.870;4.702;2024-02-21T16:11:30;9.80;99.90